sensor_id;sensor_type;location;lat;lon;timestamp;P1;durP1;ratioP1;P2;durP2;ratioP2
53203;SDS011;39086;54.424;18.456;2023-07-29T00:00:39;24.25;;;16.05;;
53203;SDS011;39086;54.424;18.456;2023-07-29T00:01:42;20.63;;;16.67;;
53203;SDS011;39086;54.424;18.456;2023-07-29T00:02:45;18.33;;;16.42;;
53203;SDS011;39086;54.424;18.456;2023-07-29T00:03:48;20.13;;;17.20;;
53203;SDS011;39086;54.424;18.456;2023-07-29T00:04:51;18.52;;;16.05;;
53203;SDS011;39086;54.424;18.456;2023-07-29T00:05:53;18.05;;;16.17;;
53203;SDS011;39086;54.424;18.456;2023-07-29T00:06:57;17.83;;;15.93;;
53203;SDS011;39086;54.424;18.456;2023-07-29T00:07:59;18.08;;;16.20;;
53203;SDS011;39086;54.424;18.456;2023-07-29T00:09:03;19.52;;;17.35;;
53203;SDS011;39086;54.424;18.456;2023-07-29T00:10:06;20.60;;;17.33;;
53203;SDS011;39086;54.424;18.456;2023-07-29T00:11:09;18.15;;;16.25;;
53203;SDS011;39086;54.424;18.456;2023-07-29T00:12:12;19.20;;;15.07;;
53203;SDS011;39086;54.424;18.456;2023-07-29T00:13:15;18.10;;;15.57;;
53203;SDS011;39086;54.424;18.456;2023-07-29T00:14:19;17.87;;;14.53;;
53203;SDS011;39086;54.424;18.456;2023-07-29T00:15:22;14.87;;;13.30;;
53203;SDS011;39086;54.424;18.456;2023-07-29T00:16:26;14.18;;;12.68;;
53203;SDS011;39086;54.424;18.456;2023-07-29T00:17:29;13.60;;;12.30;;
53203;SDS011;39086;54.424;18.456;2023-07-29T00:18:32;13.75;;;12.15;;
53203;SDS011;39086;54.424;18.456;2023-07-29T00:19:35;13.98;;;12.50;;
53203;SDS011;39086;54.424;18.456;2023-07-29T00:20:38;14.50;;;13.07;;
53203;SDS011;39086;54.424;18.456;2023-07-29T00:21:40;13.88;;;12.43;;
53203;SDS011;39086;54.424;18.456;2023-07-29T00:22:43;14.35;;;12.88;;
53203;SDS011;39086;54.424;18.456;2023-07-29T00:23:46;14.07;;;12.68;;
53203;SDS011;39086;54.424;18.456;2023-07-29T00:24:51;14.37;;;12.73;;
53203;SDS011;39086;54.424;18.456;2023-07-29T00:25:54;13.00;;;11.70;;
53203;SDS011;39086;54.424;18.456;2023-07-29T00:26:57;14.63;;;12.98;;
53203;SDS011;39086;54.424;18.456;2023-07-29T00:28:00;13.82;;;12.32;;
53203;SDS011;39086;54.424;18.456;2023-07-29T00:29:02;13.45;;;12.15;;
53203;SDS011;39086;54.424;18.456;2023-07-29T00:30:06;12.68;;;11.43;;
53203;SDS011;39086;54.424;18.456;2023-07-29T00:31:09;13.13;;;11.82;;
53203;SDS011;39086;54.424;18.456;2023-07-29T00:32:14;13.63;;;12.15;;
53203;SDS011;39086;54.424;18.456;2023-07-29T00:33:16;13.38;;;11.88;;
53203;SDS011;39086;54.424;18.456;2023-07-29T00:34:21;12.48;;;11.38;;
53203;SDS011;39086;54.424;18.456;2023-07-29T00:35:23;13.00;;;11.70;;
53203;SDS011;39086;54.424;18.456;2023-07-29T00:36:28;11.98;;;10.88;;
53203;SDS011;39086;54.424;18.456;2023-07-29T00:37:30;11.75;;;10.57;;
53203;SDS011;39086;54.424;18.456;2023-07-29T00:38:33;11.35;;;10.40;;
53203;SDS011;39086;54.424;18.456;2023-07-29T00:39:36;11.90;;;10.63;;
53203;SDS011;39086;54.424;18.456;2023-07-29T00:40:39;11.93;;;10.57;;
53203;SDS011;39086;54.424;18.456;2023-07-29T00:41:41;12.77;;;10.70;;
53203;SDS011;39086;54.424;18.456;2023-07-29T00:42:45;12.18;;;11.02;;
53203;SDS011;39086;54.424;18.456;2023-07-29T00:43:47;11.98;;;10.93;;
53203;SDS011;39086;54.424;18.456;2023-07-29T00:44:50;15.73;;;12.38;;
53203;SDS011;39086;54.424;18.456;2023-07-29T00:45:53;12.98;;;11.68;;
53203;SDS011;39086;54.424;18.456;2023-07-29T00:46:58;16.40;;;12.50;;
53203;SDS011;39086;54.424;18.456;2023-07-29T00:48:04;14.77;;;11.77;;
53203;SDS011;39086;54.424;18.456;2023-07-29T00:49:08;14.45;;;12.73;;
53203;SDS011;39086;54.424;18.456;2023-07-29T00:50:11;13.15;;;11.77;;
53203;SDS011;39086;54.424;18.456;2023-07-29T00:51:14;14.55;;;12.98;;
53203;SDS011;39086;54.424;18.456;2023-07-29T00:52:17;12.80;;;11.52;;
53203;SDS011;39086;54.424;18.456;2023-07-29T00:53:20;13.20;;;11.90;;
53203;SDS011;39086;54.424;18.456;2023-07-29T00:54:23;13.23;;;11.40;;
53203;SDS011;39086;54.424;18.456;2023-07-29T00:55:26;13.93;;;11.95;;
53203;SDS011;39086;54.424;18.456;2023-07-29T00:56:29;13.88;;;12.50;;
53203;SDS011;39086;54.424;18.456;2023-07-29T00:57:33;14.30;;;12.80;;
53203;SDS011;39086;54.424;18.456;2023-07-29T00:58:37;13.13;;;11.82;;
53203;SDS011;39086;54.424;18.456;2023-07-29T00:59:40;13.00;;;11.77;;
53203;SDS011;39086;54.424;18.456;2023-07-29T01:00:43;15.32;;;13.82;;
53203;SDS011;39086;54.424;18.456;2023-07-29T01:01:46;14.27;;;12.88;;
53203;SDS011;39086;54.424;18.456;2023-07-29T01:02:49;16.05;;;12.45;;
53203;SDS011;39086;54.424;18.456;2023-07-29T01:03:55;13.82;;;12.60;;
53203;SDS011;39086;54.424;18.456;2023-07-29T01:04:59;13.90;;;12.60;;
53203;SDS011;39086;54.424;18.456;2023-07-29T01:06:06;13.50;;;11.70;;
53203;SDS011;39086;54.424;18.456;2023-07-29T01:07:12;13.15;;;11.82;;
53203;SDS011;39086;54.424;18.456;2023-07-29T01:08:18;14.35;;;12.52;;
53203;SDS011;39086;54.424;18.456;2023-07-29T01:09:25;13.40;;;12.10;;
53203;SDS011;39086;54.424;18.456;2023-07-29T01:10:35;13.60;;;12.30;;
53203;SDS011;39086;54.424;18.456;2023-07-29T01:11:41;12.25;;;10.95;;
53203;SDS011;39086;54.424;18.456;2023-07-29T01:12:46;12.00;;;10.90;;
53203;SDS011;39086;54.424;18.456;2023-07-29T01:13:53;13.50;;;12.20;;
53203;SDS011;39086;54.424;18.456;2023-07-29T01:14:58;13.30;;;12.10;;
53203;SDS011;39086;54.424;18.456;2023-07-29T01:16:04;12.73;;;11.48;;
53203;SDS011;39086;54.424;18.456;2023-07-29T01:17:13;12.82;;;11.32;;
53203;SDS011;39086;54.424;18.456;2023-07-29T01:18:18;13.63;;;12.32;;
53203;SDS011;39086;54.424;18.456;2023-07-29T01:19:26;12.80;;;11.55;;
53203;SDS011;39086;54.424;18.456;2023-07-29T01:20:37;13.15;;;11.82;;
53203;SDS011;39086;54.424;18.456;2023-07-29T01:21:40;14.57;;;13.18;;
53203;SDS011;39086;54.424;18.456;2023-07-29T01:22:44;14.02;;;12.60;;
53203;SDS011;39086;54.424;18.456;2023-07-29T01:23:47;15.15;;;13.70;;
53203;SDS011;39086;54.424;18.456;2023-07-29T01:24:55;15.32;;;13.45;;
53203;SDS011;39086;54.424;18.456;2023-07-29T01:25:57;13.95;;;12.50;;
53203;SDS011;39086;54.424;18.456;2023-07-29T01:27:00;15.73;;;13.70;;
53203;SDS011;39086;54.424;18.456;2023-07-29T01:28:05;15.02;;;13.43;;
53203;SDS011;39086;54.424;18.456;2023-07-29T01:29:08;14.20;;;12.80;;
53203;SDS011;39086;54.424;18.456;2023-07-29T01:30:11;18.92;;;13.20;;
53203;SDS011;39086;54.424;18.456;2023-07-29T01:31:20;15.20;;;13.70;;
53203;SDS011;39086;54.424;18.456;2023-07-29T01:32:26;15.90;;;13.85;;
53203;SDS011;39086;54.424;18.456;2023-07-29T01:33:33;17.52;;;15.30;;
53203;SDS011;39086;54.424;18.456;2023-07-29T01:34:39;15.20;;;13.50;;
53203;SDS011;39086;54.424;18.456;2023-07-29T01:35:43;16.25;;;14.55;;
53203;SDS011;39086;54.424;18.456;2023-07-29T01:36:49;18.55;;;14.88;;
53203;SDS011;39086;54.424;18.456;2023-07-29T01:37:55;17.65;;;15.18;;
53203;SDS011;39086;54.424;18.456;2023-07-29T01:39:00;16.83;;;14.80;;
53203;SDS011;39086;54.424;18.456;2023-07-29T01:40:04;15.77;;;14.13;;
53203;SDS011;39086;54.424;18.456;2023-07-29T01:41:08;17.20;;;14.07;;
53203;SDS011;39086;54.424;18.456;2023-07-29T01:42:11;14.70;;;13.30;;
53203;SDS011;39086;54.424;18.456;2023-07-29T01:43:14;15.60;;;14.02;;
53203;SDS011;39086;54.424;18.456;2023-07-29T01:44:17;16.60;;;14.25;;
53203;SDS011;39086;54.424;18.456;2023-07-29T01:45:22;15.57;;;13.95;;
53203;SDS011;39086;54.424;18.456;2023-07-29T01:46:29;14.88;;;13.38;;
53203;SDS011;39086;54.424;18.456;2023-07-29T01:47:32;15.20;;;13.65;;
53203;SDS011;39086;54.424;18.456;2023-07-29T01:48:34;17.35;;;13.30;;
53203;SDS011;39086;54.424;18.456;2023-07-29T01:49:38;14.25;;;12.75;;
53203;SDS011;39086;54.424;18.456;2023-07-29T01:50:40;13.27;;;12.07;;
53203;SDS011;39086;54.424;18.456;2023-07-29T01:51:42;15.02;;;12.73;;
53203;SDS011;39086;54.424;18.456;2023-07-29T01:52:46;13.93;;;12.55;;
53203;SDS011;39086;54.424;18.456;2023-07-29T01:53:48;14.27;;;12.88;;
53203;SDS011;39086;54.424;18.456;2023-07-29T01:54:53;14.23;;;12.93;;
53203;SDS011;39086;54.424;18.456;2023-07-29T01:55:55;14.93;;;12.98;;
53203;SDS011;39086;54.424;18.456;2023-07-29T01:56:59;12.98;;;11.77;;
53203;SDS011;39086;54.424;18.456;2023-07-29T01:58:01;13.20;;;11.90;;
53203;SDS011;39086;54.424;18.456;2023-07-29T01:59:04;13.32;;;11.75;;
53203;SDS011;39086;54.424;18.456;2023-07-29T02:00:07;14.23;;;12.73;;
53203;SDS011;39086;54.424;18.456;2023-07-29T02:01:11;13.57;;;12.27;;
53203;SDS011;39086;54.424;18.456;2023-07-29T02:02:13;14.52;;;12.70;;
53203;SDS011;39086;54.424;18.456;2023-07-29T02:03:17;14.32;;;12.82;;
53203;SDS011;39086;54.424;18.456;2023-07-29T02:04:19;13.55;;;12.15;;
53203;SDS011;39086;54.424;18.456;2023-07-29T02:05:23;14.27;;;12.77;;
53203;SDS011;39086;54.424;18.456;2023-07-29T02:06:28;13.85;;;12.40;;
53203;SDS011;39086;54.424;18.456;2023-07-29T02:07:32;13.02;;;11.48;;
53203;SDS011;39086;54.424;18.456;2023-07-29T02:08:34;13.93;;;11.93;;
53203;SDS011;39086;54.424;18.456;2023-07-29T02:09:38;13.55;;;11.73;;
53203;SDS011;39086;54.424;18.456;2023-07-29T02:10:41;13.52;;;12.23;;
53203;SDS011;39086;54.424;18.456;2023-07-29T02:11:46;12.82;;;11.73;;
53203;SDS011;39086;54.424;18.456;2023-07-29T02:12:49;14.23;;;12.93;;
53203;SDS011;39086;54.424;18.456;2023-07-29T02:13:52;13.85;;;12.50;;
53203;SDS011;39086;54.424;18.456;2023-07-29T02:14:54;13.75;;;12.52;;
53203;SDS011;39086;54.424;18.456;2023-07-29T02:15:58;15.88;;;14.23;;
53203;SDS011;39086;54.424;18.456;2023-07-29T02:17:00;17.75;;;15.85;;
53203;SDS011;39086;54.424;18.456;2023-07-29T02:18:04;21.77;;;17.75;;
53203;SDS011;39086;54.424;18.456;2023-07-29T02:19:08;27.75;;;20.17;;
53203;SDS011;39086;54.424;18.456;2023-07-29T02:20:11;27.60;;;21.70;;
53203;SDS011;39086;54.424;18.456;2023-07-29T02:21:14;23.38;;;18.52;;
53203;SDS011;39086;54.424;18.456;2023-07-29T02:22:17;23.80;;;18.95;;
53203;SDS011;39086;54.424;18.456;2023-07-29T02:23:19;23.20;;;18.58;;
53203;SDS011;39086;54.424;18.456;2023-07-29T02:24:23;26.50;;;20.17;;
53203;SDS011;39086;54.424;18.456;2023-07-29T02:25:25;21.48;;;18.20;;
53203;SDS011;39086;54.424;18.456;2023-07-29T02:26:30;23.55;;;19.67;;
53203;SDS011;39086;54.424;18.456;2023-07-29T02:27:32;29.80;;;22.75;;
53203;SDS011;39086;54.424;18.456;2023-07-29T02:28:36;35.92;;;24.17;;
53203;SDS011;39086;54.424;18.456;2023-07-29T02:29:38;32.22;;;25.25;;
53203;SDS011;39086;54.424;18.456;2023-07-29T02:30:41;35.95;;;24.33;;
53203;SDS011;39086;54.424;18.456;2023-07-29T02:31:45;35.05;;;25.38;;
53203;SDS011;39086;54.424;18.456;2023-07-29T02:32:49;35.97;;;23.88;;
53203;SDS011;39086;54.424;18.456;2023-07-29T02:33:51;34.45;;;25.92;;
53203;SDS011;39086;54.424;18.456;2023-07-29T02:34:55;35.83;;;24.83;;
53203;SDS011;39086;54.424;18.456;2023-07-29T02:35:57;37.55;;;25.45;;
53203;SDS011;39086;54.424;18.456;2023-07-29T02:37:01;32.35;;;24.20;;
53203;SDS011;39086;54.424;18.456;2023-07-29T02:38:03;30.95;;;23.95;;
53203;SDS011;39086;54.424;18.456;2023-07-29T02:39:06;37.50;;;25.67;;
53203;SDS011;39086;54.424;18.456;2023-07-29T02:40:09;31.75;;;24.17;;
53203;SDS011;39086;54.424;18.456;2023-07-29T02:41:13;35.83;;;23.75;;
53203;SDS011;39086;54.424;18.456;2023-07-29T02:42:18;35.10;;;24.77;;
53203;SDS011;39086;54.424;18.456;2023-07-29T02:43:22;32.75;;;24.30;;
53203;SDS011;39086;54.424;18.456;2023-07-29T02:44:24;34.30;;;23.52;;
53203;SDS011;39086;54.424;18.456;2023-07-29T02:45:27;32.92;;;24.98;;
53203;SDS011;39086;54.424;18.456;2023-07-29T02:46:30;34.08;;;25.80;;
53203;SDS011;39086;54.424;18.456;2023-07-29T02:47:34;39.30;;;26.77;;
53203;SDS011;39086;54.424;18.456;2023-07-29T02:48:40;38.53;;;25.85;;
53203;SDS011;39086;54.424;18.456;2023-07-29T02:49:43;37.97;;;24.77;;
53203;SDS011;39086;54.424;18.456;2023-07-29T02:50:45;39.30;;;25.33;;
53203;SDS011;39086;54.424;18.456;2023-07-29T02:51:48;35.50;;;25.23;;
53203;SDS011;39086;54.424;18.456;2023-07-29T02:52:51;32.75;;;25.38;;
53203;SDS011;39086;54.424;18.456;2023-07-29T02:53:53;34.53;;;24.65;;
53203;SDS011;39086;54.424;18.456;2023-07-29T02:54:57;34.38;;;26.02;;
53203;SDS011;39086;54.424;18.456;2023-07-29T02:55:59;35.65;;;24.70;;
53203;SDS011;39086;54.424;18.456;2023-07-29T02:57:03;37.63;;;25.83;;
53203;SDS011;39086;54.424;18.456;2023-07-29T02:58:06;40.92;;;26.63;;
53203;SDS011;39086;54.424;18.456;2023-07-29T02:59:10;38.63;;;26.08;;
53203;SDS011;39086;54.424;18.456;2023-07-29T03:00:12;45.60;;;26.92;;
53203;SDS011;39086;54.424;18.456;2023-07-29T03:01:16;46.03;;;27.67;;
53203;SDS011;39086;54.424;18.456;2023-07-29T03:02:19;49.83;;;28.63;;
53203;SDS011;39086;54.424;18.456;2023-07-29T03:03:22;45.15;;;27.10;;
53203;SDS011;39086;54.424;18.456;2023-07-29T03:04:25;52.75;;;29.15;;
53203;SDS011;39086;54.424;18.456;2023-07-29T03:05:28;45.15;;;28.60;;
53203;SDS011;39086;54.424;18.456;2023-07-29T03:06:30;51.08;;;27.40;;
53203;SDS011;39086;54.424;18.456;2023-07-29T03:07:34;42.70;;;28.70;;
53203;SDS011;39086;54.424;18.456;2023-07-29T03:08:37;47.35;;;27.67;;
53203;SDS011;39086;54.424;18.456;2023-07-29T03:09:40;44.28;;;28.10;;
53203;SDS011;39086;54.424;18.456;2023-07-29T03:10:43;46.78;;;27.17;;
53203;SDS011;39086;54.424;18.456;2023-07-29T03:11:46;46.25;;;28.13;;
53203;SDS011;39086;54.424;18.456;2023-07-29T03:12:49;47.28;;;27.90;;
53203;SDS011;39086;54.424;18.456;2023-07-29T03:13:54;43.13;;;25.92;;
53203;SDS011;39086;54.424;18.456;2023-07-29T03:14:56;45.28;;;25.77;;
53203;SDS011;39086;54.424;18.456;2023-07-29T03:16:04;44.63;;;26.60;;
53203;SDS011;39086;54.424;18.456;2023-07-29T03:17:06;41.47;;;25.63;;
53203;SDS011;39086;54.424;18.456;2023-07-29T03:18:10;47.28;;;25.83;;
53203;SDS011;39086;54.424;18.456;2023-07-29T03:19:13;40.60;;;26.15;;
53203;SDS011;39086;54.424;18.456;2023-07-29T03:20:16;42.55;;;24.92;;
53203;SDS011;39086;54.424;18.456;2023-07-29T03:21:19;42.38;;;25.58;;
53203;SDS011;39086;54.424;18.456;2023-07-29T03:22:22;40.45;;;25.73;;
53203;SDS011;39086;54.424;18.456;2023-07-29T03:23:24;45.50;;;27.05;;
53203;SDS011;39086;54.424;18.456;2023-07-29T03:24:28;52.92;;;26.27;;
53203;SDS011;39086;54.424;18.456;2023-07-29T03:25:33;39.85;;;25.35;;
53203;SDS011;39086;54.424;18.456;2023-07-29T03:26:36;39.78;;;25.83;;
53203;SDS011;39086;54.424;18.456;2023-07-29T03:27:39;40.13;;;24.98;;
53203;SDS011;39086;54.424;18.456;2023-07-29T03:28:43;53.50;;;25.42;;
53203;SDS011;39086;54.424;18.456;2023-07-29T03:29:47;35.92;;;25.85;;
53203;SDS011;39086;54.424;18.456;2023-07-29T03:30:50;39.53;;;24.92;;
53203;SDS011;39086;54.424;18.456;2023-07-29T03:31:53;38.92;;;23.98;;
53203;SDS011;39086;54.424;18.456;2023-07-29T03:32:56;40.80;;;25.27;;
53203;SDS011;39086;54.424;18.456;2023-07-29T03:33:59;38.85;;;24.30;;
53203;SDS011;39086;54.424;18.456;2023-07-29T03:35:02;44.17;;;25.38;;
53203;SDS011;39086;54.424;18.456;2023-07-29T03:36:05;37.60;;;25.20;;
53203;SDS011;39086;54.424;18.456;2023-07-29T03:37:09;51.33;;;25.45;;
53203;SDS011;39086;54.424;18.456;2023-07-29T03:38:12;49.78;;;25.80;;
53203;SDS011;39086;54.424;18.456;2023-07-29T03:39:15;37.13;;;24.45;;
53203;SDS011;39086;54.424;18.456;2023-07-29T03:40:18;43.63;;;25.13;;
53203;SDS011;39086;54.424;18.456;2023-07-29T03:41:20;44.35;;;24.63;;
53203;SDS011;39086;54.424;18.456;2023-07-29T03:42:24;36.15;;;23.88;;
53203;SDS011;39086;54.424;18.456;2023-07-29T03:43:26;55.70;;;24.07;;
53203;SDS011;39086;54.424;18.456;2023-07-29T03:44:29;46.40;;;23.48;;
53203;SDS011;39086;54.424;18.456;2023-07-29T03:45:33;36.78;;;23.30;;
53203;SDS011;39086;54.424;18.456;2023-07-29T03:46:37;36.95;;;23.08;;
53203;SDS011;39086;54.424;18.456;2023-07-29T03:47:40;47.40;;;23.37;;
53203;SDS011;39086;54.424;18.456;2023-07-29T03:48:44;33.92;;;22.63;;
53203;SDS011;39086;54.424;18.456;2023-07-29T03:49:46;36.27;;;22.50;;
53203;SDS011;39086;54.424;18.456;2023-07-29T03:50:49;37.43;;;23.47;;
53203;SDS011;39086;54.424;18.456;2023-07-29T03:51:52;34.30;;;21.83;;
53203;SDS011;39086;54.424;18.456;2023-07-29T03:52:55;33.50;;;22.47;;
53203;SDS011;39086;54.424;18.456;2023-07-29T03:53:57;36.78;;;21.83;;
53203;SDS011;39086;54.424;18.456;2023-07-29T03:55:01;31.52;;;20.88;;
53203;SDS011;39086;54.424;18.456;2023-07-29T03:56:03;27.80;;;20.63;;
53203;SDS011;39086;54.424;18.456;2023-07-29T03:57:07;26.63;;;20.53;;
53203;SDS011;39086;54.424;18.456;2023-07-29T03:58:09;24.57;;;19.57;;
53203;SDS011;39086;54.424;18.456;2023-07-29T03:59:13;24.73;;;19.98;;
53203;SDS011;39086;54.424;18.456;2023-07-29T04:00:15;24.67;;;18.90;;
53203;SDS011;39086;54.424;18.456;2023-07-29T04:01:20;22.57;;;19.30;;
53203;SDS011;39086;54.424;18.456;2023-07-29T04:02:22;22.23;;;18.30;;
53203;SDS011;39086;54.424;18.456;2023-07-29T04:03:25;24.57;;;18.83;;
53203;SDS011;39086;54.424;18.456;2023-07-29T04:04:28;21.60;;;19.07;;
53203;SDS011;39086;54.424;18.456;2023-07-29T04:05:30;22.30;;;18.67;;
53203;SDS011;39086;54.424;18.456;2023-07-29T04:06:34;30.27;;;19.70;;
53203;SDS011;39086;54.424;18.456;2023-07-29T04:07:37;21.33;;;18.07;;
53203;SDS011;39086;54.424;18.456;2023-07-29T04:08:40;22.37;;;17.97;;
53203;SDS011;39086;54.424;18.456;2023-07-29T04:09:43;27.53;;;18.70;;
53203;SDS011;39086;54.424;18.456;2023-07-29T04:10:46;28.13;;;17.93;;
53203;SDS011;39086;54.424;18.456;2023-07-29T04:11:49;19.90;;;17.63;;
53203;SDS011;39086;54.424;18.456;2023-07-29T04:12:52;20.07;;;17.67;;
53203;SDS011;39086;54.424;18.456;2023-07-29T04:13:54;21.10;;;17.90;;
53203;SDS011;39086;54.424;18.456;2023-07-29T04:14:58;20.40;;;17.37;;
53203;SDS011;39086;54.424;18.456;2023-07-29T04:16:00;22.90;;;17.33;;
53203;SDS011;39086;54.424;18.456;2023-07-29T04:17:05;20.93;;;16.87;;
53203;SDS011;39086;54.424;18.456;2023-07-29T04:18:07;19.90;;;17.53;;
53203;SDS011;39086;54.424;18.456;2023-07-29T04:19:11;22.73;;;17.87;;
53203;SDS011;39086;54.424;18.456;2023-07-29T04:20:13;21.93;;;16.97;;
53203;SDS011;39086;54.424;18.456;2023-07-29T04:21:17;19.03;;;16.83;;
53203;SDS011;39086;54.424;18.456;2023-07-29T04:22:19;19.67;;;16.67;;
53203;SDS011;39086;54.424;18.456;2023-07-29T04:23:21;19.20;;;16.42;;
53203;SDS011;39086;54.424;18.456;2023-07-29T04:24:25;20.05;;;17.88;;
53203;SDS011;39086;54.424;18.456;2023-07-29T04:25:27;18.77;;;16.77;;
53203;SDS011;39086;54.424;18.456;2023-07-29T04:26:30;19.35;;;16.77;;
53203;SDS011;39086;54.424;18.456;2023-07-29T04:27:33;19.67;;;16.70;;
53203;SDS011;39086;54.424;18.456;2023-07-29T04:28:36;21.43;;;16.40;;
53203;SDS011;39086;54.424;18.456;2023-07-29T04:29:38;19.40;;;16.43;;
53203;SDS011;39086;54.424;18.456;2023-07-29T04:30:42;16.70;;;14.97;;
53203;SDS011;39086;54.424;18.456;2023-07-29T04:31:44;20.07;;;16.60;;
53203;SDS011;39086;54.424;18.456;2023-07-29T04:32:48;18.10;;;16.20;;
53203;SDS011;39086;54.424;18.456;2023-07-29T04:33:52;18.57;;;15.80;;
53203;SDS011;39086;54.424;18.456;2023-07-29T04:34:54;17.90;;;16.13;;
53203;SDS011;39086;54.424;18.456;2023-07-29T04:35:57;17.17;;;15.40;;
53203;SDS011;39086;54.424;18.456;2023-07-29T04:37:00;18.17;;;16.13;;
53203;SDS011;39086;54.424;18.456;2023-07-29T04:38:03;19.27;;;15.77;;
53203;SDS011;39086;54.424;18.456;2023-07-29T04:39:05;16.83;;;15.10;;
53203;SDS011;39086;54.424;18.456;2023-07-29T04:40:09;19.50;;;15.50;;
53203;SDS011;39086;54.424;18.456;2023-07-29T04:41:12;18.77;;;15.97;;
53203;SDS011;39086;54.424;18.456;2023-07-29T04:42:15;17.40;;;15.60;;
53203;SDS011;39086;54.424;18.456;2023-07-29T04:43:17;17.00;;;15.07;;
53203;SDS011;39086;54.424;18.456;2023-07-29T04:44:21;17.87;;;15.90;;
53203;SDS011;39086;54.424;18.456;2023-07-29T04:45:23;17.40;;;15.60;;
53203;SDS011;39086;54.424;18.456;2023-07-29T04:46:30;17.20;;;15.50;;
53203;SDS011;39086;54.424;18.456;2023-07-29T04:47:33;17.60;;;15.73;;
53203;SDS011;39086;54.424;18.456;2023-07-29T04:48:37;18.00;;;15.97;;
53203;SDS011;39086;54.424;18.456;2023-07-29T04:49:40;16.30;;;14.70;;
53203;SDS011;39086;54.424;18.456;2023-07-29T04:50:43;16.97;;;15.03;;
53203;SDS011;39086;54.424;18.456;2023-07-29T04:51:45;17.60;;;15.70;;
53203;SDS011;39086;54.424;18.456;2023-07-29T04:52:49;17.37;;;15.57;;
53203;SDS011;39086;54.424;18.456;2023-07-29T04:53:51;18.00;;;16.03;;
53203;SDS011;39086;54.424;18.456;2023-07-29T04:54:54;17.07;;;15.37;;
53203;SDS011;39086;54.424;18.456;2023-07-29T04:55:57;16.97;;;15.27;;
53203;SDS011;39086;54.424;18.456;2023-07-29T04:57:00;17.77;;;15.97;;
53203;SDS011;39086;54.424;18.456;2023-07-29T04:58:03;18.57;;;15.90;;
53203;SDS011;39086;54.424;18.456;2023-07-29T04:59:06;19.00;;;15.50;;
53203;SDS011;39086;54.424;18.456;2023-07-29T05:00:10;19.97;;;16.07;;
53203;SDS011;39086;54.424;18.456;2023-07-29T05:01:13;17.93;;;16.03;;
53203;SDS011;39086;54.424;18.456;2023-07-29T05:02:16;18.73;;;15.93;;
53203;SDS011;39086;54.424;18.456;2023-07-29T05:03:19;17.90;;;16.00;;
53203;SDS011;39086;54.424;18.456;2023-07-29T05:04:23;17.57;;;15.67;;
53203;SDS011;39086;54.424;18.456;2023-07-29T05:05:27;18.37;;;16.47;;
53203;SDS011;39086;54.424;18.456;2023-07-29T05:06:29;16.97;;;15.17;;
53203;SDS011;39086;54.424;18.456;2023-07-29T05:07:32;17.00;;;15.20;;
53203;SDS011;39086;54.424;18.456;2023-07-29T05:08:35;19.80;;;15.80;;
53203;SDS011;39086;54.424;18.456;2023-07-29T05:09:38;18.33;;;16.43;;
53203;SDS011;39086;54.424;18.456;2023-07-29T05:10:40;17.47;;;15.60;;
53203;SDS011;39086;54.424;18.456;2023-07-29T05:11:44;17.33;;;15.53;;
53203;SDS011;39086;54.424;18.456;2023-07-29T05:12:47;17.40;;;15.60;;
53203;SDS011;39086;54.424;18.456;2023-07-29T05:13:50;17.87;;;15.83;;
53203;SDS011;39086;54.424;18.456;2023-07-29T05:14:52;17.50;;;15.70;;
53203;SDS011;39086;54.424;18.456;2023-07-29T05:15:55;16.33;;;14.73;;
53203;SDS011;39086;54.424;18.456;2023-07-29T05:16:58;15.30;;;13.70;;
53203;SDS011;39086;54.424;18.456;2023-07-29T05:18:02;17.33;;;15.00;;
53203;SDS011;39086;54.424;18.456;2023-07-29T05:19:04;16.07;;;14.47;;
53203;SDS011;39086;54.424;18.456;2023-07-29T05:20:09;15.90;;;14.50;;
53203;SDS011;39086;54.424;18.456;2023-07-29T05:21:12;15.03;;;13.63;;
53203;SDS011;39086;54.424;18.456;2023-07-29T05:22:16;14.70;;;13.20;;
53203;SDS011;39086;54.424;18.456;2023-07-29T05:23:18;14.87;;;13.47;;
53203;SDS011;39086;54.424;18.456;2023-07-29T05:24:21;14.30;;;12.90;;
53203;SDS011;39086;54.424;18.456;2023-07-29T05:25:24;13.33;;;12.13;;
53203;SDS011;39086;54.424;18.456;2023-07-29T05:26:27;16.10;;;12.50;;
53203;SDS011;39086;54.424;18.456;2023-07-29T05:27:30;13.53;;;12.30;;
53203;SDS011;39086;54.424;18.456;2023-07-29T05:28:33;13.53;;;12.33;;
53203;SDS011;39086;54.424;18.456;2023-07-29T05:29:36;13.67;;;12.37;;
53203;SDS011;39086;54.424;18.456;2023-07-29T05:30:39;13.83;;;12.43;;
53203;SDS011;39086;54.424;18.456;2023-07-29T05:31:41;13.47;;;12.07;;
53203;SDS011;39086;54.424;18.456;2023-07-29T05:32:45;12.40;;;11.33;;
53203;SDS011;39086;54.424;18.456;2023-07-29T05:33:47;13.23;;;11.73;;
53203;SDS011;39086;54.424;18.456;2023-07-29T05:34:50;13.07;;;11.80;;
53203;SDS011;39086;54.424;18.456;2023-07-29T05:35:54;13.50;;;12.10;;
53203;SDS011;39086;54.424;18.456;2023-07-29T05:36:58;11.83;;;10.73;;
53203;SDS011;39086;54.424;18.456;2023-07-29T05:38:00;12.27;;;11.17;;
53203;SDS011;39086;54.424;18.456;2023-07-29T05:39:04;12.43;;;11.37;;
53203;SDS011;39086;54.424;18.456;2023-07-29T05:40:07;11.83;;;10.83;;
53203;SDS011;39086;54.424;18.456;2023-07-29T05:41:11;13.07;;;10.83;;
53203;SDS011;39086;54.424;18.456;2023-07-29T05:42:13;11.60;;;10.63;;
53203;SDS011;39086;54.424;18.456;2023-07-29T05:43:16;11.60;;;10.40;;
53203;SDS011;39086;54.424;18.456;2023-07-29T05:44:19;10.90;;;9.90;;
53203;SDS011;39086;54.424;18.456;2023-07-29T05:45:22;13.50;;;10.47;;
53203;SDS011;39086;54.424;18.456;2023-07-29T05:46:24;11.53;;;10.47;;
53203;SDS011;39086;54.424;18.456;2023-07-29T05:47:28;11.10;;;10.10;;
53203;SDS011;39086;54.424;18.456;2023-07-29T05:48:30;11.10;;;10.20;;
53203;SDS011;39086;54.424;18.456;2023-07-29T05:49:34;10.50;;;9.60;;
53203;SDS011;39086;54.424;18.456;2023-07-29T05:50:36;10.33;;;9.33;;
53203;SDS011;39086;54.424;18.456;2023-07-29T05:51:41;11.53;;;9.37;;
53203;SDS011;39086;54.424;18.456;2023-07-29T05:52:43;10.23;;;9.23;;
53203;SDS011;39086;54.424;18.456;2023-07-29T05:53:46;8.97;;;7.90;;
53203;SDS011;39086;54.424;18.456;2023-07-29T05:54:49;9.33;;;8.40;;
53203;SDS011;39086;54.424;18.456;2023-07-29T05:55:52;9.10;;;8.23;;
53203;SDS011;39086;54.424;18.456;2023-07-29T05:56:55;9.23;;;8.43;;
53203;SDS011;39086;54.424;18.456;2023-07-29T05:57:58;8.90;;;8.20;;
53203;SDS011;39086;54.424;18.456;2023-07-29T05:59:00;8.23;;;7.53;;
53203;SDS011;39086;54.424;18.456;2023-07-29T06:00:04;7.97;;;7.10;;
53203;SDS011;39086;54.424;18.456;2023-07-29T06:01:07;7.73;;;6.97;;
53203;SDS011;39086;54.424;18.456;2023-07-29T06:02:10;6.87;;;6.30;;
53203;SDS011;39086;54.424;18.456;2023-07-29T06:03:13;6.83;;;6.20;;
53203;SDS011;39086;54.424;18.456;2023-07-29T06:04:15;6.93;;;5.90;;
53203;SDS011;39086;54.424;18.456;2023-07-29T06:05:19;14.13;;;6.47;;
53203;SDS011;39086;54.424;18.456;2023-07-29T06:06:21;9.10;;;6.87;;